AFR600 TFFF-SOCA
Flight info
| Callsign | AFR600 |
|---|---|
| Flight time | 1h 52m |
| Altitude | 37000 |
| Route | BORUS2R BORUS A555 BGI UA555 BUXEX UA247 SILAT |
| Aircraft | A320/M-SDE3FGHIRWY/LB1 |
Departure
| Time | 2026-04-28 16:25 |
|---|---|
| Airport | Martinique Aimé Césaire International Airport (TFFF) |
Arrival
| Time | 2026-04-28 18:18 |
|---|---|
| Airport | Cayenne – Félix Eboué Airport (SOCA) |
| Time | Latitude | Longitude | Altitude | Speed | Heading |
|---|---|---|---|---|---|
| 2026-04-28 15:31 | 14.59447 | -60.99976 | 18 ft | 0 kts | 7° |
| 2026-04-28 16:16 | 14.59434 | -60.99977 | 20 ft | 4 kts | 7° |
| 2026-04-28 16:17 | 14.59385 | -60.99983 | 19 ft | 4 kts | 348° |
| 2026-04-28 16:17 | 14.59367 | -60.99972 | 19 ft | 4 kts | 282° |
| 2026-04-28 16:17 | 14.59367 | -60.99947 | 19 ft | 2 kts | 260° |
| 2026-04-28 16:17 | 14.59367 | -60.99945 | 19 ft | 0 kts | 260° |
| 2026-04-28 16:20 | 14.59367 | -60.99946 | 19 ft | 1 kts | 260° |
| 2026-04-28 16:20 | 14.59359 | -60.99991 | 19 ft | 11 kts | 261° |
| 2026-04-28 16:20 | 14.59329 | -61.00044 | 19 ft | 9 kts | 192° |
| 2026-04-28 16:21 | 14.59243 | -61.00026 | 21 ft | 17 kts | 173° |
| 2026-04-28 16:21 | 14.59154 | -61.00056 | 17 ft | 15 kts | 244° |
| 2026-04-28 16:21 | 14.59128 | -61.00194 | 16 ft | 22 kts | 260° |
| 2026-04-28 16:21 | 14.59102 | -61.00342 | 16 ft | 22 kts | 260° |
| 2026-04-28 16:22 | 14.59072 | -61.00517 | 14 ft | 25 kts | 260° |
| 2026-04-28 16:22 | 14.59044 | -61.00684 | 19 ft | 23 kts | 260° |
| 2026-04-28 16:22 | 14.59018 | -61.00838 | 24 ft | 20 kts | 260° |
| 2026-04-28 16:22 | 14.58994 | -61.00977 | 21 ft | 20 kts | 261° |
| 2026-04-28 16:23 | 14.58992 | -61.01116 | 25 ft | 12 kts | 292° |
| 2026-04-28 16:23 | 14.59000 | -61.01181 | 25 ft | 8 kts | 230° |
| 2026-04-28 16:23 | 14.58961 | -61.01172 | 27 ft | 6 kts | 115° |
| 2026-04-28 16:23 | 14.58962 | -61.01160 | 25 ft | 1 kts | 81° |
| 2026-04-28 16:24 | 14.58965 | -61.01146 | 24 ft | 3 kts | 81° |
| 2026-04-28 16:24 | 14.58970 | -61.01111 | 25 ft | 9 kts | 80° |
| 2026-04-28 16:24 | 14.59006 | -61.00907 | 22 ft | 20 kts | 79° |
| 2026-04-28 16:24 | 14.59008 | -61.00894 | 22 ft | 0 kts | 80° |
| 2026-04-28 16:25 | 14.59026 | -61.00785 | 22 ft | 49 kts | 80° |
| 2026-04-28 16:25 | 14.59127 | -61.00194 | 16 ft | 115 kts | 80° |
| 2026-04-28 16:25 | 14.59291 | -60.99224 | 156 ft | 149 kts | 80° |
| 2026-04-28 16:25 | 14.59496 | -60.98192 | 884 ft | 144 kts | 77° |
| 2026-04-28 16:26 | 14.59696 | -60.97106 | 1295 ft | 162 kts | 80° |
| 2026-04-28 16:26 | 14.59916 | -60.95901 | 1760 ft | 180 kts | 82° |
| 2026-04-28 16:26 | 14.60149 | -60.94559 | 2051 ft | 201 kts | 81° |
| 2026-04-28 16:26 | 14.60388 | -60.93060 | 2424 ft | 224 kts | 83° |
| 2026-04-28 16:27 | 14.60651 | -60.91398 | 2944 ft | 242 kts | 82° |
| 2026-04-28 16:27 | 14.60851 | -60.89649 | 3731 ft | 248 kts | 94° |
| 2026-04-28 16:27 | 14.58884 | -60.86744 | 5508 ft | 264 kts | 142° |
| 2026-04-28 16:28 | 14.57328 | -60.85724 | 6403 ft | 268 kts | 147° |
| 2026-04-28 16:28 | 14.55705 | -60.84741 | 7192 ft | 273 kts | 147° |
| 2026-04-28 16:28 | 14.54066 | -60.83713 | 7919 ft | 279 kts | 144° |
| 2026-04-28 16:28 | 14.52422 | -60.82614 | 8647 ft | 284 kts | 143° |
| 2026-04-28 16:29 | 14.49108 | -60.80225 | 10003 ft | 296 kts | 141° |
| 2026-04-28 16:29 | 14.45590 | -60.77572 | 10596 ft | 333 kts | 140° |
| 2026-04-28 16:30 | 14.43701 | -60.76136 | 11124 ft | 340 kts | 140° |
| 2026-04-28 16:30 | 14.41784 | -60.74680 | 11772 ft | 344 kts | 142° |
| 2026-04-28 16:30 | 14.39849 | -60.73216 | 12435 ft | 347 kts | 142° |
| 2026-04-28 16:30 | 14.37893 | -60.71741 | 13099 ft | 349 kts | 142° |
| 2026-04-28 16:31 | 14.35924 | -60.70258 | 13777 ft | 351 kts | 142° |
| 2026-04-28 16:31 | 14.33944 | -60.68764 | 14361 ft | 353 kts | 142° |
| 2026-04-28 16:31 | 14.31955 | -60.67263 | 14942 ft | 356 kts | 143° |
| 2026-04-28 16:31 | 14.29949 | -60.65749 | 15540 ft | 357 kts | 143° |
| 2026-04-28 16:32 | 14.27941 | -60.64230 | 16070 ft | 361 kts | 143° |
| 2026-04-28 16:32 | 14.23854 | -60.61145 | 17168 ft | 367 kts | 144° |
| 2026-04-28 16:32 | 14.21783 | -60.59583 | 17714 ft | 370 kts | 144° |
| 2026-04-28 16:33 | 14.19711 | -60.58020 | 18358 ft | 369 kts | 144° |
| 2026-04-28 16:33 | 14.18337 | -60.56984 | 18695 ft | 370 kts | 144° |
| 2026-04-28 16:33 | 14.15543 | -60.54876 | 19305 ft | 375 kts | 144° |
| 2026-04-28 16:33 | 14.13429 | -60.53283 | 19721 ft | 379 kts | 145° |
| 2026-04-28 16:34 | 14.11295 | -60.51676 | 20209 ft | 381 kts | 145° |
| 2026-04-28 16:34 | 14.09153 | -60.50062 | 20682 ft | 383 kts | 145° |
| 2026-04-28 16:34 | 14.06988 | -60.48435 | 21122 ft | 387 kts | 145° |
| 2026-04-28 16:34 | 14.04819 | -60.46777 | 21564 ft | 390 kts | 142° |
| 2026-04-28 16:35 | 14.02860 | -60.44881 | 22009 ft | 394 kts | 137° |
| 2026-04-28 16:35 | 14.00902 | -60.42883 | 22449 ft | 398 kts | 137° |
| 2026-04-28 16:35 | 13.98930 | -60.40873 | 22903 ft | 401 kts | 137° |
| 2026-04-28 16:35 | 13.96944 | -60.38850 | 23357 ft | 403 kts | 137° |
| 2026-04-28 16:36 | 13.94945 | -60.36816 | 23762 ft | 406 kts | 137° |
| 2026-04-28 16:36 | 13.92929 | -60.34762 | 24116 ft | 409 kts | 137° |
| 2026-04-28 16:36 | 13.90902 | -60.32698 | 24480 ft | 411 kts | 137° |
| 2026-04-28 16:36 | 13.88862 | -60.30622 | 24830 ft | 413 kts | 137° |
| 2026-04-28 16:37 | 13.86810 | -60.28538 | 25181 ft | 415 kts | 137° |
| 2026-04-28 16:37 | 13.84746 | -60.26444 | 25527 ft | 418 kts | 137° |
| 2026-04-28 16:37 | 13.82670 | -60.24338 | 25874 ft | 420 kts | 137° |
| 2026-04-28 16:38 | 13.78492 | -60.20100 | 26549 ft | 424 kts | 137° |
| 2026-04-28 16:38 | 13.76388 | -60.17973 | 26875 ft | 426 kts | 137° |
| 2026-04-28 16:38 | 13.74270 | -60.15828 | 27197 ft | 428 kts | 137° |
| 2026-04-28 16:38 | 13.72151 | -60.13674 | 27517 ft | 429 kts | 137° |
| 2026-04-28 16:39 | 13.70024 | -60.11512 | 27829 ft | 431 kts | 137° |
| 2026-04-28 16:39 | 13.67882 | -60.09337 | 28138 ft | 433 kts | 137° |
| 2026-04-28 16:39 | 13.65733 | -60.07158 | 28445 ft | 435 kts | 137° |
| 2026-04-28 16:39 | 13.63569 | -60.04969 | 28734 ft | 437 kts | 137° |
| 2026-04-28 16:40 | 13.61396 | -60.02774 | 29037 ft | 439 kts | 137° |
| 2026-04-28 16:40 | 13.59241 | -60.00596 | 29325 ft | 441 kts | 137° |
| 2026-04-28 16:40 | 13.57027 | -59.98354 | 29608 ft | 443 kts | 137° |
| 2026-04-28 16:40 | 13.54827 | -59.96126 | 29885 ft | 445 kts | 137° |
| 2026-04-28 16:41 | 13.52645 | -59.93920 | 30138 ft | 446 kts | 137° |
| 2026-04-28 16:41 | 13.50398 | -59.91649 | 30372 ft | 448 kts | 137° |
| 2026-04-28 16:41 | 13.48201 | -59.89426 | 30580 ft | 450 kts | 137° |
| 2026-04-28 16:41 | 13.45972 | -59.87168 | 30806 ft | 451 kts | 137° |
| 2026-04-28 16:42 | 13.43738 | -59.84903 | 31028 ft | 452 kts | 137° |
| 2026-04-28 16:42 | 13.41493 | -59.82629 | 31237 ft | 454 kts | 137° |
| 2026-04-28 16:42 | 13.39237 | -59.80354 | 31438 ft | 455 kts | 137° |
| 2026-04-28 16:42 | 13.36972 | -59.78075 | 31716 ft | 455 kts | 137° |
| 2026-04-28 16:43 | 13.34715 | -59.75806 | 32010 ft | 454 kts | 137° |
| 2026-04-28 16:43 | 13.32464 | -59.73540 | 32297 ft | 453 kts | 138° |
| 2026-04-28 16:43 | 13.30217 | -59.71272 | 32590 ft | 453 kts | 138° |
| 2026-04-28 16:43 | 13.27972 | -59.69007 | 32867 ft | 453 kts | 138° |
| 2026-04-28 16:44 | 13.25726 | -59.66739 | 33135 ft | 453 kts | 138° |
| 2026-04-28 16:44 | 13.23477 | -59.64472 | 33409 ft | 452 kts | 138° |
| 2026-04-28 16:44 | 13.21239 | -59.62218 | 33696 ft | 452 kts | 138° |
| 2026-04-28 16:44 | 13.18991 | -59.59954 | 33999 ft | 452 kts | 138° |
| 2026-04-28 16:45 | 13.16757 | -59.57705 | 34299 ft | 450 kts | 138° |
| 2026-04-28 16:45 | 13.14522 | -59.55456 | 34550 ft | 450 kts | 138° |
| 2026-04-28 16:45 | 13.12286 | -59.53208 | 34779 ft | 450 kts | 138° |
| 2026-04-28 16:45 | 13.10050 | -59.50961 | 34983 ft | 450 kts | 138° |
| 2026-04-28 16:46 | 13.07815 | -59.48713 | 35187 ft | 451 kts | 138° |
| 2026-04-28 16:46 | 13.05533 | -59.46502 | 35378 ft | 451 kts | 140° |
| 2026-04-28 16:46 | 13.03198 | -59.44369 | 35585 ft | 450 kts | 141° |
| 2026-04-28 16:46 | 13.00818 | -59.42279 | 35767 ft | 451 kts | 142° |
| 2026-04-28 16:47 | 12.98418 | -59.40206 | 35956 ft | 451 kts | 142° |
| 2026-04-28 16:47 | 12.96049 | -59.38155 | 36143 ft | 451 kts | 142° |
| 2026-04-28 16:47 | 12.93663 | -59.36064 | 36321 ft | 452 kts | 142° |
| 2026-04-28 16:47 | 12.91288 | -59.33955 | 36502 ft | 452 kts | 141° |
| 2026-04-28 16:48 | 12.88913 | -59.31833 | 36670 ft | 453 kts | 141° |
| 2026-04-28 16:48 | 12.86543 | -59.29713 | 36865 ft | 452 kts | 141° |
| 2026-04-28 16:48 | 12.84140 | -59.27564 | 37014 ft | 453 kts | 141° |
| 2026-04-28 16:49 | 12.79431 | -59.23364 | 37051 ft | 451 kts | 141° |
| 2026-04-28 16:49 | 12.74644 | -59.19113 | 37052 ft | 459 kts | 141° |
| 2026-04-28 16:50 | 12.69783 | -59.14792 | 37052 ft | 466 kts | 141° |
| 2026-04-28 16:50 | 12.64834 | -59.10385 | 37052 ft | 471 kts | 141° |
| 2026-04-28 16:51 | 12.59894 | -59.05998 | 37052 ft | 475 kts | 141° |
| 2026-04-28 16:51 | 12.54894 | -59.01559 | 37048 ft | 476 kts | 141° |
| 2026-04-28 16:52 | 12.49899 | -58.97122 | 37052 ft | 476 kts | 141° |
| 2026-04-28 16:52 | 12.44897 | -58.92682 | 37058 ft | 476 kts | 141° |
| 2026-04-28 16:53 | 12.39894 | -58.88251 | 37063 ft | 476 kts | 141° |
| 2026-04-28 16:53 | 12.34846 | -58.83789 | 37064 ft | 476 kts | 141° |
| 2026-04-28 16:54 | 12.29872 | -58.79392 | 37063 ft | 476 kts | 141° |
| 2026-04-28 16:54 | 12.24865 | -58.74962 | 37063 ft | 476 kts | 141° |
| 2026-04-28 16:55 | 12.19866 | -58.70529 | 37060 ft | 476 kts | 141° |
| 2026-04-28 16:55 | 12.14863 | -58.66105 | 37057 ft | 476 kts | 141° |
| 2026-04-28 16:56 | 12.09861 | -58.61681 | 37056 ft | 475 kts | 141° |
| 2026-04-28 16:56 | 12.04858 | -58.57258 | 37055 ft | 476 kts | 141° |
| 2026-04-28 16:57 | 11.99845 | -58.52834 | 37056 ft | 476 kts | 141° |
| 2026-04-28 16:57 | 11.94836 | -58.48427 | 37055 ft | 476 kts | 141° |
| 2026-04-28 16:58 | 11.89821 | -58.44007 | 37055 ft | 475 kts | 141° |
| 2026-04-28 16:58 | 11.84822 | -58.39594 | 37056 ft | 475 kts | 141° |
| 2026-04-28 16:59 | 11.79825 | -58.35182 | 37057 ft | 475 kts | 141° |
| 2026-04-28 16:59 | 11.74826 | -58.30778 | 37058 ft | 475 kts | 141° |
| 2026-04-28 17:00 | 11.70630 | -58.27090 | 37056 ft | 475 kts | 141° |
| 2026-04-28 17:00 | 11.65625 | -58.22698 | 37058 ft | 475 kts | 141° |
| 2026-04-28 17:01 | 11.60619 | -58.18301 | 37061 ft | 475 kts | 141° |
| 2026-04-28 17:01 | 11.55628 | -58.13902 | 37061 ft | 474 kts | 141° |
| 2026-04-28 17:02 | 11.50663 | -58.09540 | 37058 ft | 474 kts | 141° |
| 2026-04-28 17:02 | 11.45670 | -58.05159 | 37059 ft | 473 kts | 141° |
| 2026-04-28 17:03 | 11.38182 | -57.98594 | 37056 ft | 473 kts | 141° |
| 2026-04-28 17:03 | 11.33198 | -57.94220 | 37052 ft | 473 kts | 141° |
| 2026-04-28 17:04 | 11.25722 | -57.87653 | 37052 ft | 473 kts | 141° |
| 2026-04-28 17:05 | 11.18236 | -57.81111 | 37051 ft | 473 kts | 141° |
| 2026-04-28 17:06 | 11.10753 | -57.74569 | 37048 ft | 473 kts | 141° |
| 2026-04-28 17:06 | 11.03281 | -57.68025 | 37047 ft | 473 kts | 141° |
| 2026-04-28 17:07 | 10.98290 | -57.63664 | 37049 ft | 473 kts | 141° |
| 2026-04-28 17:07 | 10.93305 | -57.59306 | 37045 ft | 473 kts | 141° |
| 2026-04-28 17:08 | 10.88318 | -57.54948 | 37044 ft | 473 kts | 141° |
| 2026-04-28 17:08 | 10.83322 | -57.50591 | 37043 ft | 473 kts | 141° |
| 2026-04-28 17:09 | 10.78332 | -57.46243 | 37036 ft | 473 kts | 141° |
| 2026-04-28 17:09 | 10.73336 | -57.41894 | 37038 ft | 473 kts | 141° |
| 2026-04-28 17:10 | 10.68343 | -57.37535 | 37044 ft | 473 kts | 141° |
| 2026-04-28 17:10 | 10.63349 | -57.33169 | 37039 ft | 474 kts | 141° |
| 2026-04-28 17:11 | 10.58343 | -57.28795 | 37038 ft | 474 kts | 141° |
| 2026-04-28 17:11 | 10.53324 | -57.24436 | 37039 ft | 475 kts | 141° |
| 2026-04-28 17:12 | 10.48300 | -57.20080 | 37043 ft | 475 kts | 141° |
| 2026-04-28 17:12 | 10.43272 | -57.15708 | 37041 ft | 476 kts | 141° |
| 2026-04-28 17:13 | 10.38249 | -57.11334 | 37043 ft | 476 kts | 141° |
| 2026-04-28 17:13 | 10.33211 | -57.06952 | 37043 ft | 477 kts | 140° |
| 2026-04-28 17:14 | 10.28172 | -57.02570 | 37043 ft | 477 kts | 140° |
| 2026-04-28 17:14 | 10.23120 | -56.98193 | 37047 ft | 478 kts | 141° |
| 2026-04-28 17:15 | 10.18059 | -56.93813 | 37049 ft | 478 kts | 140° |
| 2026-04-28 17:15 | 10.13010 | -56.89427 | 37051 ft | 478 kts | 140° |
| 2026-04-28 17:16 | 10.07951 | -56.85033 | 37051 ft | 478 kts | 141° |
| 2026-04-28 17:16 | 10.02887 | -56.80641 | 37046 ft | 479 kts | 140° |
| 2026-04-28 17:17 | 9.97811 | -56.76249 | 37045 ft | 480 kts | 140° |
| 2026-04-28 17:17 | 9.92743 | -56.71858 | 37045 ft | 480 kts | 140° |
| 2026-04-28 17:18 | 9.87664 | -56.67464 | 37045 ft | 480 kts | 141° |
| 2026-04-28 17:18 | 9.82588 | -56.63070 | 37037 ft | 480 kts | 141° |
| 2026-04-28 17:19 | 9.77499 | -56.58667 | 37026 ft | 481 kts | 141° |
| 2026-04-28 17:19 | 9.72404 | -56.54275 | 37025 ft | 481 kts | 141° |
| 2026-04-28 17:20 | 9.68164 | -56.50616 | 37023 ft | 482 kts | 141° |
| 2026-04-28 17:20 | 9.62199 | -56.45466 | 37024 ft | 482 kts | 141° |
| 2026-04-28 17:21 | 9.57129 | -56.41081 | 37026 ft | 482 kts | 141° |
| 2026-04-28 17:22 | 9.49481 | -56.34474 | 37039 ft | 481 kts | 140° |
| 2026-04-28 17:22 | 9.44389 | -56.30076 | 37043 ft | 481 kts | 140° |
| 2026-04-28 17:23 | 9.36747 | -56.23498 | 37035 ft | 480 kts | 140° |
| 2026-04-28 17:23 | 9.31660 | -56.19112 | 37035 ft | 480 kts | 140° |
| 2026-04-28 17:24 | 9.26566 | -56.14728 | 37034 ft | 480 kts | 141° |
| 2026-04-28 17:24 | 9.21483 | -56.10345 | 37022 ft | 481 kts | 141° |
| 2026-04-28 17:25 | 9.13829 | -56.03755 | 37016 ft | 482 kts | 141° |
| 2026-04-28 17:26 | 9.08723 | -55.99360 | 37018 ft | 482 kts | 141° |
| 2026-04-28 17:26 | 9.03608 | -55.94964 | 37022 ft | 483 kts | 141° |
| 2026-04-28 17:27 | 8.98488 | -55.90574 | 37026 ft | 483 kts | 141° |
| 2026-04-28 17:27 | 8.93363 | -55.86175 | 37028 ft | 483 kts | 141° |
| 2026-04-28 17:28 | 8.88241 | -55.81775 | 37027 ft | 483 kts | 141° |
| 2026-04-28 17:28 | 8.80553 | -55.75170 | 37030 ft | 483 kts | 141° |
| 2026-04-28 17:29 | 8.75431 | -55.70780 | 37025 ft | 483 kts | 141° |
| 2026-04-28 17:30 | 8.67739 | -55.64184 | 37016 ft | 484 kts | 141° |
| 2026-04-28 17:30 | 8.60047 | -55.57577 | 37017 ft | 484 kts | 141° |
| 2026-04-28 17:31 | 8.52320 | -55.50977 | 37023 ft | 484 kts | 141° |
| 2026-04-28 17:32 | 8.44653 | -55.44414 | 37031 ft | 484 kts | 140° |
| 2026-04-28 17:32 | 8.39526 | -55.40015 | 37021 ft | 484 kts | 140° |
| 2026-04-28 17:33 | 8.34379 | -55.35615 | 37015 ft | 485 kts | 141° |
| 2026-04-28 17:33 | 8.30943 | -55.32679 | 37021 ft | 484 kts | 140° |
| 2026-04-28 17:34 | 8.24108 | -55.26828 | 37023 ft | 484 kts | 141° |
| 2026-04-28 17:34 | 8.18963 | -55.22439 | 37024 ft | 484 kts | 141° |
| 2026-04-28 17:35 | 8.13812 | -55.18043 | 37025 ft | 485 kts | 140° |
| 2026-04-28 17:35 | 8.08670 | -55.13651 | 37032 ft | 484 kts | 140° |
| 2026-04-28 17:36 | 8.03527 | -55.09267 | 37034 ft | 483 kts | 140° |
| 2026-04-28 17:36 | 7.98399 | -55.04882 | 37031 ft | 483 kts | 140° |
| 2026-04-28 17:37 | 7.93253 | -55.00494 | 37019 ft | 484 kts | 140° |
| 2026-04-28 17:37 | 7.88114 | -54.96119 | 37034 ft | 483 kts | 140° |
| 2026-04-28 17:38 | 7.82985 | -54.91751 | 37030 ft | 483 kts | 141° |
| 2026-04-28 17:38 | 7.77861 | -54.87370 | 37014 ft | 483 kts | 141° |
| 2026-04-28 17:39 | 7.72722 | -54.82986 | 37008 ft | 485 kts | 141° |
| 2026-04-28 17:40 | 7.64983 | -54.76402 | 37005 ft | 486 kts | 141° |
| 2026-04-28 17:40 | 7.59849 | -54.72033 | 37014 ft | 486 kts | 141° |
| 2026-04-28 17:41 | 7.54659 | -54.67613 | 37035 ft | 484 kts | 140° |
| 2026-04-28 17:41 | 7.49558 | -54.63268 | 37036 ft | 483 kts | 140° |
| 2026-04-28 17:42 | 7.44421 | -54.58900 | 37035 ft | 482 kts | 141° |
| 2026-04-28 17:42 | 7.39292 | -54.54545 | 37036 ft | 483 kts | 141° |
| 2026-04-28 17:43 | 7.34146 | -54.50175 | 37026 ft | 483 kts | 141° |
| 2026-04-28 17:43 | 7.29009 | -54.45811 | 37030 ft | 483 kts | 141° |
| 2026-04-28 17:44 | 7.24735 | -54.42178 | 37025 ft | 484 kts | 141° |
| 2026-04-28 17:44 | 7.19584 | -54.37799 | 37022 ft | 485 kts | 141° |
| 2026-04-28 17:45 | 7.14418 | -54.33413 | 37022 ft | 486 kts | 141° |
| 2026-04-28 17:45 | 7.09249 | -54.29031 | 37030 ft | 485 kts | 141° |
| 2026-04-28 17:46 | 7.04089 | -54.24663 | 37030 ft | 485 kts | 141° |
| 2026-04-28 17:46 | 6.98920 | -54.20289 | 37032 ft | 484 kts | 141° |
| 2026-04-28 17:47 | 6.93774 | -54.15921 | 37033 ft | 484 kts | 141° |
| 2026-04-28 17:47 | 6.88618 | -54.11545 | 37013 ft | 486 kts | 141° |
| 2026-04-28 17:48 | 6.83449 | -54.07171 | 37015 ft | 486 kts | 141° |
| 2026-04-28 17:48 | 6.78264 | -54.02789 | 37013 ft | 487 kts | 141° |
| 2026-04-28 17:49 | 6.73325 | -53.98130 | 37020 ft | 487 kts | 132° |
| 2026-04-28 17:49 | 6.68838 | -53.93020 | 37020 ft | 488 kts | 132° |
| 2026-04-28 17:50 | 6.64341 | -53.87905 | 37016 ft | 488 kts | 132° |
| 2026-04-28 17:50 | 6.59846 | -53.82806 | 37020 ft | 487 kts | 132° |
| 2026-04-28 17:51 | 6.55344 | -53.77711 | 37026 ft | 487 kts | 132° |
| 2026-04-28 17:51 | 6.50249 | -53.73308 | 37028 ft | 483 kts | 147° |
| 2026-04-28 17:52 | 6.44658 | -53.69566 | 37027 ft | 483 kts | 147° |
| 2026-04-28 17:52 | 6.36416 | -53.64060 | 37013 ft | 461 kts | 148° |
| 2026-04-28 17:53 | 6.31154 | -53.60521 | 36634 ft | 457 kts | 148° |
| 2026-04-28 17:53 | 6.28520 | -53.58758 | 36082 ft | 454 kts | 148° |
| 2026-04-28 17:53 | 6.25899 | -53.57005 | 35547 ft | 450 kts | 147° |
| 2026-04-28 17:54 | 6.23299 | -53.55265 | 35009 ft | 447 kts | 147° |
| 2026-04-28 17:54 | 6.20718 | -53.53542 | 34475 ft | 444 kts | 146° |
| 2026-04-28 17:54 | 6.18155 | -53.51830 | 33929 ft | 441 kts | 146° |
| 2026-04-28 17:54 | 6.15605 | -53.50126 | 33359 ft | 437 kts | 145° |
| 2026-04-28 17:55 | 6.13093 | -53.48442 | 32839 ft | 432 kts | 145° |
| 2026-04-28 17:55 | 6.10605 | -53.46776 | 32325 ft | 428 kts | 145° |
| 2026-04-28 17:55 | 6.08136 | -53.45128 | 31822 ft | 424 kts | 145° |
| 2026-04-28 17:55 | 6.05695 | -53.43498 | 31308 ft | 420 kts | 144° |
| 2026-04-28 17:56 | 6.03272 | -53.41876 | 30825 ft | 417 kts | 144° |
| 2026-04-28 17:56 | 6.00866 | -53.40263 | 30337 ft | 413 kts | 144° |
| 2026-04-28 17:56 | 5.98484 | -53.38672 | 29833 ft | 410 kts | 143° |
| 2026-04-28 17:56 | 5.96123 | -53.37094 | 29342 ft | 405 kts | 143° |
| 2026-04-28 17:57 | 5.93799 | -53.35540 | 28910 ft | 399 kts | 143° |
| 2026-04-28 17:57 | 5.91499 | -53.34000 | 28471 ft | 394 kts | 143° |
| 2026-04-28 17:57 | 5.89230 | -53.32484 | 28046 ft | 390 kts | 143° |
| 2026-04-28 17:57 | 5.86986 | -53.30987 | 27613 ft | 386 kts | 143° |
| 2026-04-28 17:58 | 5.84759 | -53.29499 | 27165 ft | 382 kts | 143° |
| 2026-04-28 17:58 | 5.82559 | -53.28030 | 26728 ft | 379 kts | 143° |
| 2026-04-28 17:58 | 5.80366 | -53.26564 | 26281 ft | 377 kts | 143° |
| 2026-04-28 17:58 | 5.78196 | -53.25113 | 25829 ft | 374 kts | 143° |
| 2026-04-28 17:59 | 5.76031 | -53.23668 | 25378 ft | 372 kts | 143° |
| 2026-04-28 17:59 | 5.73878 | -53.22231 | 24908 ft | 371 kts | 143° |
| 2026-04-28 17:59 | 5.71735 | -53.20801 | 24443 ft | 369 kts | 143° |
| 2026-04-28 17:59 | 5.69599 | -53.19376 | 23967 ft | 368 kts | 143° |
| 2026-04-28 18:00 | 5.67460 | -53.17951 | 23468 ft | 368 kts | 143° |
| 2026-04-28 18:00 | 5.65336 | -53.16537 | 22955 ft | 365 kts | 143° |
| 2026-04-28 18:00 | 5.63228 | -53.15133 | 22478 ft | 362 kts | 143° |
| 2026-04-28 18:00 | 5.61136 | -53.13738 | 22035 ft | 360 kts | 143° |
| 2026-04-28 18:01 | 5.59058 | -53.12349 | 21580 ft | 357 kts | 143° |
| 2026-04-28 18:01 | 5.57001 | -53.10976 | 21135 ft | 355 kts | 143° |
| 2026-04-28 18:01 | 5.54945 | -53.09603 | 20692 ft | 353 kts | 143° |
| 2026-04-28 18:01 | 5.52905 | -53.08243 | 20252 ft | 351 kts | 144° |
| 2026-04-28 18:02 | 5.50875 | -53.06889 | 19814 ft | 350 kts | 144° |
| 2026-04-28 18:02 | 5.48851 | -53.05538 | 19385 ft | 349 kts | 144° |
| 2026-04-28 18:02 | 5.46833 | -53.04191 | 18956 ft | 348 kts | 144° |
| 2026-04-28 18:02 | 5.44819 | -53.02845 | 18527 ft | 348 kts | 144° |
| 2026-04-28 18:03 | 5.42805 | -53.01499 | 18068 ft | 347 kts | 144° |
| 2026-04-28 18:03 | 5.40804 | -53.00165 | 17624 ft | 345 kts | 144° |
| 2026-04-28 18:03 | 5.38811 | -52.98836 | 17211 ft | 343 kts | 144° |
| 2026-04-28 18:03 | 5.36851 | -52.97531 | 16801 ft | 341 kts | 144° |
| 2026-04-28 18:04 | 5.34856 | -52.96202 | 16389 ft | 339 kts | 144° |
| 2026-04-28 18:04 | 5.32897 | -52.94897 | 15988 ft | 337 kts | 144° |
| 2026-04-28 18:04 | 5.30947 | -52.93597 | 15586 ft | 336 kts | 144° |
| 2026-04-28 18:04 | 5.29007 | -52.92305 | 15193 ft | 334 kts | 144° |
| 2026-04-28 18:05 | 5.27126 | -52.91051 | 14807 ft | 333 kts | 145° |
| 2026-04-28 18:05 | 5.25852 | -52.90203 | 14546 ft | 332 kts | 144° |
| 2026-04-28 18:05 | 5.23285 | -52.88491 | 14013 ft | 330 kts | 145° |
| 2026-04-28 18:05 | 5.21373 | -52.87219 | 13599 ft | 325 kts | 144° |
| 2026-04-28 18:06 | 5.19522 | -52.85987 | 13206 ft | 318 kts | 144° |
| 2026-04-28 18:06 | 5.17683 | -52.84763 | 12816 ft | 316 kts | 144° |
| 2026-04-28 18:06 | 5.15864 | -52.83549 | 12432 ft | 314 kts | 143° |
| 2026-04-28 18:06 | 5.14069 | -52.82354 | 12045 ft | 312 kts | 143° |
| 2026-04-28 18:07 | 5.12249 | -52.81142 | 11655 ft | 310 kts | 143° |
| 2026-04-28 18:07 | 5.10480 | -52.79964 | 11262 ft | 308 kts | 143° |
| 2026-04-28 18:07 | 5.08683 | -52.78767 | 10860 ft | 301 kts | 144° |
| 2026-04-28 18:07 | 5.06997 | -52.77648 | 10512 ft | 291 kts | 144° |
| 2026-04-28 18:08 | 5.05318 | -52.76533 | 10137 ft | 289 kts | 144° |
| 2026-04-28 18:08 | 5.03664 | -52.75430 | 9721 ft | 283 kts | 143° |
| 2026-04-28 18:08 | 5.02040 | -52.74345 | 9309 ft | 280 kts | 144° |
| 2026-04-28 18:08 | 5.00418 | -52.73263 | 8921 ft | 279 kts | 144° |
| 2026-04-28 18:09 | 4.98801 | -52.72185 | 8533 ft | 278 kts | 144° |
| 2026-04-28 18:09 | 4.97195 | -52.71117 | 8132 ft | 277 kts | 143° |
| 2026-04-28 18:09 | 4.95592 | -52.70053 | 7729 ft | 274 kts | 143° |
| 2026-04-28 18:09 | 4.94006 | -52.68999 | 7367 ft | 272 kts | 143° |
| 2026-04-28 18:10 | 4.92459 | -52.67971 | 7150 ft | 264 kts | 143° |
| 2026-04-28 18:10 | 4.90932 | -52.66955 | 6812 ft | 261 kts | 143° |
| 2026-04-28 18:10 | 4.89426 | -52.65950 | 6342 ft | 259 kts | 142° |
| 2026-04-28 18:10 | 4.87930 | -52.64952 | 5835 ft | 258 kts | 142° |
| 2026-04-28 18:11 | 4.86447 | -52.63963 | 5323 ft | 257 kts | 142° |
| 2026-04-28 18:11 | 4.84956 | -52.62971 | 4883 ft | 257 kts | 141° |
| 2026-04-28 18:11 | 4.83471 | -52.61981 | 4532 ft | 252 kts | 143° |
| 2026-04-28 18:11 | 4.82021 | -52.61019 | 4473 ft | 250 kts | 143° |
| 2026-04-28 18:12 | 4.80574 | -52.60057 | 4378 ft | 250 kts | 143° |
| 2026-04-28 18:12 | 4.79123 | -52.59093 | 4259 ft | 249 kts | 143° |
| 2026-04-28 18:12 | 4.77681 | -52.58133 | 4152 ft | 250 kts | 143° |
| 2026-04-28 18:12 | 4.76229 | -52.57165 | 4047 ft | 251 kts | 143° |
| 2026-04-28 18:13 | 4.74793 | -52.56183 | 3935 ft | 250 kts | 138° |
| 2026-04-28 18:13 | 4.73849 | -52.54793 | 3811 ft | 243 kts | 103° |
| 2026-04-28 18:13 | 4.73907 | -52.53160 | 3465 ft | 231 kts | 74° |
| 2026-04-28 18:13 | 4.74484 | -52.51688 | 3013 ft | 224 kts | 65° |
| 2026-04-28 18:14 | 4.75181 | -52.50307 | 2525 ft | 220 kts | 65° |
| 2026-04-28 18:14 | 4.75921 | -52.48977 | 2002 ft | 216 kts | 61° |
| 2026-04-28 18:14 | 4.76619 | -52.47717 | 1967 ft | 193 kts | 64° |
| 2026-04-28 18:14 | 4.77178 | -52.46570 | 1857 ft | 174 kts | 66° |
| 2026-04-28 18:15 | 4.77655 | -52.45548 | 1627 ft | 152 kts | 65° |
| 2026-04-28 18:15 | 4.78075 | -52.44640 | 1454 ft | 139 kts | 65° |
| 2026-04-28 18:15 | 4.78485 | -52.43753 | 1278 ft | 136 kts | 66° |
| 2026-04-28 18:15 | 4.78881 | -52.42894 | 1107 ft | 137 kts | 68° |
| 2026-04-28 18:16 | 4.79288 | -52.42036 | 972 ft | 137 kts | 68° |
| 2026-04-28 18:16 | 4.79675 | -52.41184 | 748 ft | 135 kts | 66° |
| 2026-04-28 18:16 | 4.80068 | -52.40306 | 620 ft | 140 kts | 65° |
| 2026-04-28 18:16 | 4.80471 | -52.39438 | 471 ft | 133 kts | 65° |
| 2026-04-28 18:17 | 4.80864 | -52.38602 | 295 ft | 132 kts | 66° |
| 2026-04-28 18:17 | 4.81239 | -52.37768 | 113 ft | 130 kts | 66° |
| 2026-04-28 18:17 | 4.81604 | -52.36977 | 31 ft | 113 kts | 66° |
| 2026-04-28 18:17 | 4.81868 | -52.36401 | 29 ft | 66 kts | 65° |
| 2026-04-28 18:18 | 4.81995 | -52.36130 | 29 ft | 28 kts | 65° |
| 2026-04-28 18:18 | 4.82061 | -52.35995 | 29 ft | 15 kts | 50° |
| 2026-04-28 18:18 | 4.82153 | -52.36006 | 29 ft | 15 kts | 313° |
| 2026-04-28 18:18 | 4.82187 | -52.36061 | 29 ft | 13 kts | 294° |
| 2026-04-28 18:19 | 4.82160 | -52.36165 | 29 ft | 11 kts | 244° |
| 2026-04-28 18:19 | 4.82127 | -52.36230 | 29 ft | 10 kts | 239° |
| 2026-04-28 18:19 | 4.82109 | -52.36268 | 29 ft | 3 kts | 271° |
| 2026-04-28 18:19 | 4.82121 | -52.36279 | 29 ft | 2 kts | 335° |
| 2026-04-28 18:20 | 4.82132 | -52.36284 | 29 ft | 1 kts | 335° |
| 2026-04-28 18:20 | 4.82143 | -52.36290 | 29 ft | 3 kts | 335° |
| 2026-04-28 18:20 | 4.82164 | -52.36299 | 29 ft | 3 kts | 335° |
| 2026-04-28 18:20 | 4.82179 | -52.36306 | 29 ft | 1 kts | 336° |
| 2026-04-28 18:21 | 4.82180 | -52.36307 | 29 ft | 0 kts | 336° |